Mongmong, Guam
Current Conditions -  °F | °C
As of 2:54 AM on Friday 31 Oct 2014 (Local Time) from PGUM Reporting Station
Scattered Clouds Scattered Clouds  
Wind Chill: 79°   Ceiling: Unl
Heat Index: 83°   Visibility: 10mi
Dew Point: 76°   Wind: 10mph
Humidity: 90%   Direction: 110°ESE
Pressure: 29.73"   Gusts: NA
Location:  13.47°N, 144.76°E
Report Text: PGUM 301654Z 11009KT 10SM FEW015 SCT020 26/24 A2973 RMK AO2 RAB26E49 SLP060 P0000 T02610244
Loading
Personal Weather Stations






























Interactive Weather Map
Tropical Storm Tracking
New forecast layout! Learn more

10-Day Weather Forecast

Advertisements
Track Severe Weather on mobile